KPWM/PWM METAR and TAF weather

Enter ICAO airport designator
Station Type Date Time Source
KPWM METAR 2020/06/03 15:51 UTC NOAA

KPWM 031551Z 07005KT 10SM SCT055 BKN250 19/12 A2957 RMK AO2 SLP013 T01890122


Station Type Date Time Source
KPWM Decoded METAR 2020/06/03 15:51 UTC NOAA

PORTLAND INTERNATIONAL JETPORT, ME, United States (KPWM) 43-39N 70-18W 15M
Jun 03, 2020 - 11:51 AM EDT / 2020.06.03 1551 UTC
Wind: from the ENE (070 degrees) at 6 MPH (5 KT):0
Visibility: 10 mile(s):0
Sky conditions: mostly cloudy
Temperature: 66.0 F (18.9 C)
Dew Point: 54.0 F (12.2 C)
Relative Humidity: 65%
Pressure (altimeter): 29.57 in. Hg (1001 hPa)
ob: KPWM 031551Z 07005KT 10SM SCT055 BKN250 19/12 A2957 RMK AO2 SLP013 T01890122
cycle: 16

Station Type Date Time Source
KPWM TAF 2020/06/03 12:22 UTC NOAA

TAF KPWM 031120Z 0312/0412 VRB04KT P6SM BKN040 OVC100
FM031800 15007KT P6SM -SHRA BKN050 OVC100
FM032300 VRB03KT P6SM SCT050

Example: see airport list